This is the latest recevied weather packets stored in our database for station/object KD7JB. If no packets are shown the sender has not sent any weather packets the latest 10 day(s).
| Time | Temp. | Humidity | Pressure | Rain* | Wind** | Luminosity | Snow |
|---|---|---|---|---|---|---|---|
| 1777763851 | 19.44° C | 40% | 1178.1 hPa | 0 mm | - | 445 W/m² | - |
| 1777761731 | 20° C | 40% | 1178.4 hPa | 0 mm | - | 592 W/m² | - |
| 1777761127 | 20° C | 38% | 1178.4 hPa | 0 mm | - | 621 W/m² | - |
| 1777760824 | 20° C | 39% | 1178.4 hPa | 0 mm | - | 615 W/m² | - |
| 1777760520 | 19.44° C | 39% | 1178.7 hPa | 0 mm | - | 598 W/m² | - |
| 1777760216 | 18.89° C | 40% | 1178.7 hPa | 0 mm | - | 599 W/m² | - |
| 1777759609 | 19.44° C | 41% | 1178.7 hPa | 0 mm | - | 619 W/m² | - |
| 1777757791 | 18.89° C | 41% | 1178.9 hPa | 0 mm | - | 683 W/m² | - |
| 1777757488 | 20° C | 40% | 1179 hPa | 0 mm | - | 684 W/m² | - |
| 1777757187 | 19.44° C | 41% | 1179 hPa | 0 mm | - | 650 W/m² | - |
| 1777756885 | 19.44° C | 40% | 1179.2 hPa | 0 mm | - | 627 W/m² | - |
| 1777756278 | 19.44° C | 39% | 1179.1 hPa | 0 mm | - | 704 W/m² | - |
| 1777754460 | 18.33° C | 42% | 1179.1 hPa | 0 mm | - | 729 W/m² | - |
| 1777754156 | 18.89° C | 42% | 1179.3 hPa | 0 mm | - | 682 W/m² | - |
| 1777753854 | 18.89° C | 41% | 1179.2 hPa | 0 mm | - | 688 W/m² | - |
| 1777753549 | 18.33° C | 40% | 1179.2 hPa | 0 mm | - | 689 W/m² | - |
| 1777753248 | 18.33° C | 40% | 1179.6 hPa | 0 mm | - | 707 W/m² | - |
| 1777752944 | 17.78° C | 41% | 1179.3 hPa | 0 mm | - | 723 W/m² | - |
| 1777752640 | 18.33° C | 43% | 1179.2 hPa | 0 mm | - | 720 W/m² | - |
| 1777752336 | 18.33° C | 42% | 1179.4 hPa | 0 mm | - | 728 W/m² | - |
| 1777752035 | 17.78° C | 42% | 1179.6 hPa | 0 mm | - | 760 W/m² | - |
| 1777751732 | 17.78° C | 41% | 1179.6 hPa | 0 mm | - | 730 W/m² | - |
| 1777750214 | 17.78° C | 44% | 1179.6 hPa | 0 mm | - | 751 W/m² | - |
| 1777749910 | 17.78° C | 41% | 1179.6 hPa | 0 mm | - | 469 W/m² | - |
| 1777749305 | 17.78° C | 44% | 1179.6 hPa | 0 mm | - | 721 W/m² | - |
* Rain latest hour (hover to see other rain measurements)
** Current wind speed in m/s (hover to see current wind gust speed)